Time;durP1;ratioP1;P1;durP2;ratioP2;P2;SDS_P1;SDS_P2;PMS_P1;PMS_P2;Temp;Humidity;BMP_temperature;BMP_pressure;BME280_temperature;BME280_humidity;BME280_pressure;Samples;Min_cycle;Max_cycle;Signal;HPM_P1;HPM_P2
2021/12/04 00:01:24;;;;;;;4.57;2.80;;;3.60;99.90;;;;;;7379536;32;20107;-59
2021/12/04 00:05:26;;;;;;;5.87;3.17;;;3.60;99.90;;;;;;7362859;32;20111;-59
2021/12/04 00:09:29;;;;;;;4.72;3.42;;;3.70;99.90;;;;;;7384993;32;20190;-59
2021/12/04 00:13:31;;;;;;;5.20;3.70;;;3.50;99.90;;;;;;7384587;32;20103;-59
2021/12/04 00:17:32;;;;;;;7.40;3.90;;;3.60;99.90;;;;;;7383226;32;20125;-60
2021/12/04 00:21:34;;;;;;;5.65;4.07;;;3.60;99.90;;;;;;7382648;32;20103;-59
2021/12/04 00:25:38;;;;;;;5.03;4.40;;;3.50;99.90;;;;;;7382383;32;20574;-59
2021/12/04 00:29:40;;;;;;;6.68;3.80;;;3.40;99.90;;;;;;7378992;32;20103;-59
2021/12/04 00:33:44;;;;;;;5.70;3.90;;;3.40;99.90;;;;;;7382520;32;20119;-59
2021/12/04 00:50:55;;;;;;;5.25;4.10;;;3.60;99.90;;;;;;7382058;32;20334;-59
2021/12/04 00:54:57;;;;;;;4.00;3.40;;;3.60;99.90;;;;;;7382779;32;20539;-60
2021/12/04 00:58:58;;;;;;;5.72;4.00;;;3.70;99.90;;;;;;7379092;32;20122;-60
2021/12/04 01:03:00;;;;;;;4.30;3.30;;;3.70;99.90;;;;;;7383388;32;20122;-60
2021/12/04 01:07:02;;;;;;;4.43;3.62;;;3.70;99.90;;;;;;7383208;32;20223;-60
2021/12/04 01:11:04;;;;;;;5.50;4.07;;;3.60;99.90;;;;;;7382757;32;20410;-60
2021/12/04 01:15:07;;;;;;;4.32;3.33;;;3.60;99.90;;;;;;7382675;32;20522;-60
2021/12/04 01:19:09;;;;;;;4.75;3.50;;;3.70;99.90;;;;;;7381815;32;20131;-60
2021/12/04 01:23:10;;;;;;;4.37;3.47;;;3.60;99.90;;;;;;7382264;32;20157;-59
2021/12/04 01:27:14;;;;;;;5.57;3.75;;;3.70;99.90;;;;;;7381365;32;20483;-60
2021/12/04 01:31:15;;;;;;;4.55;3.60;;;3.70;99.90;;;;;;7383283;32;20107;-59
2021/12/04 01:35:17;;;;;;;4.87;3.47;;;3.70;99.90;;;;;;7380766;32;20464;-60
2021/12/04 01:39:19;;;;;;;4.90;4.00;;;3.80;99.90;;;;;;7382000;32;20650;-60
2021/12/04 01:43:20;;;;;;;6.12;3.55;;;3.70;99.90;;;;;;7380880;32;20133;-59
2021/12/04 01:47:22;;;;;;;4.03;3.33;;;3.80;99.90;;;;;;7375488;32;20133;-59
2021/12/04 01:51:24;;;;;;;5.18;3.85;;;3.80;99.90;;;;;;7375240;32;20107;-59
2021/12/04 01:55:28;;;;;;;5.70;4.07;;;3.80;99.90;;;;;;7372725;32;20129;-59
2021/12/04 01:59:30;;;;;;;6.30;4.22;;;3.80;99.90;;;;;;7380975;32;20106;-59
2021/12/04 02:03:31;;;;;;;5.12;4.15;;;3.80;99.90;;;;;;7366978;32;20103;-59
2021/12/04 02:07:33;;;;;;;6.40;3.95;;;3.90;99.90;;;;;;7380422;32;20520;-60
2021/12/04 02:11:35;;;;;;;5.35;3.90;;;3.80;99.90;;;;;;7381457;32;20530;-59
2021/12/04 02:15:37;;;;;;;8.07;4.05;;;3.80;99.90;;;;;;7380453;32;20129;-60
2021/12/04 02:19:39;;;;;;;5.50;4.18;;;3.80;99.90;;;;;;7380353;32;20507;-60
2021/12/04 02:23:41;;;;;;;6.37;4.20;;;3.80;99.90;;;;;;7379235;32;20107;-60
2021/12/04 02:27:45;;;;;;;6.15;3.95;;;3.70;99.90;;;;;;7380966;32;20103;-59
2021/12/04 02:31:52;;;;;;;5.47;4.07;;;3.70;99.90;;;;;;7380319;32;20403;-60
2021/12/04 02:35:55;;;;;;;6.87;3.80;;;3.80;99.90;;;;;;7369347;32;20232;-58
2021/12/04 02:40:00;;;;;;;5.82;4.15;;;3.80;99.90;;;;;;7380848;32;20150;-59
2021/12/04 02:44:02;;;;;;;5.45;4.25;;;3.70;99.90;;;;;;7380248;32;20141;-58
2021/12/04 02:48:04;;;;;;;5.03;4.12;;;3.70;99.90;;;;;;7380561;32;20114;-58
2021/12/04 02:52:09;;;;;;;6.72;4.03;;;3.70;99.90;;;;;;7377905;32;20107;-59
2021/12/04 02:56:11;;;;;;;5.12;3.80;;;3.80;99.90;;;;;;7379365;32;20494;-59
2021/12/04 03:00:15;;;;;;;5.55;4.40;;;3.70;99.90;;;;;;7380617;32;20122;-60
2021/12/04 03:04:18;;;;;;;6.12;4.57;;;3.80;99.90;;;;;;7375429;32;20111;-59
2021/12/04 03:08:20;;;;;;;6.55;4.35;;;3.80;99.90;;;;;;7375188;32;20677;-59
2021/12/04 03:12:24;;;;;;;9.23;4.37;;;3.80;99.90;;;;;;7379941;32;20530;-58
2021/12/04 03:16:26;;;;;;;7.43;4.80;;;3.90;99.90;;;;;;7379762;32;20586;-58
2021/12/04 03:20:27;;;;;;;7.25;4.55;;;3.80;99.90;;;;;;7379093;32;20197;-59
2021/12/04 03:24:30;;;;;;;5.95;4.45;;;3.90;99.90;;;;;;7360366;32;20578;-59
2021/12/04 03:28:32;;;;;;;4.68;3.95;;;3.90;99.90;;;;;;7372881;32;20127;-58
2021/12/04 03:41:02;;;;;;;5.93;4.05;;;3.80;99.90;;;;;;7371375;32;20765;-58
2021/12/04 03:45:06;;;;;;;5.80;4.50;;;3.80;99.90;;;;;;7379409;32;20170;-58
2021/12/04 03:49:08;;;;;;;5.28;4.32;;;3.80;99.90;;;;;;7380468;32;20189;-59
2021/12/04 03:53:09;;;;;;;5.12;3.87;;;3.80;99.90;;;;;;7378241;32;20464;-58
2021/12/04 03:57:12;;;;;;;6.12;4.28;;;3.80;99.90;;;;;;7378194;32;20531;-59
2021/12/04 04:01:14;;;;;;;6.55;4.10;;;3.70;99.90;;;;;;7370588;32;20342;-58
2021/12/04 04:05:16;;;;;;;6.90;4.55;;;3.80;99.90;;;;;;7379768;32;20247;-59
2021/12/04 04:09:17;;;;;;;4.95;3.92;;;3.70;99.90;;;;;;7378362;32;20177;-58
2021/12/04 04:13:20;;;;;;;6.03;4.03;;;3.80;99.90;;;;;;7377976;32;20103;-59
2021/12/04 04:17:22;;;;;;;6.97;4.50;;;3.90;99.90;;;;;;7377934;32;20126;-58
2021/12/04 04:21:23;;;;;;;4.53;3.92;;;3.90;99.90;;;;;;7379340;32;20103;-59
2021/12/04 04:25:25;;;;;;;5.70;3.80;;;3.90;99.90;;;;;;7378624;32;20474;-59
2021/12/04 04:29:27;;;;;;;6.43;4.20;;;3.90;99.90;;;;;;7378917;32;20633;-59
2021/12/04 04:33:35;;;;;;;6.07;4.20;;;3.90;99.90;;;;;;7378372;32;20548;-58
2021/12/04 05:11:43;;;;;;;4.18;3.05;;;4.00;99.90;;;;;;7378099;32;20125;-58
2021/12/04 05:19:54;;;;;;;4.35;2.80;;;3.90;99.90;;;;;;7379481;32;20111;-59
2021/12/04 05:23:56;;;;;;;3.92;2.30;;;3.90;99.90;;;;;;7376301;32;20100;-58
2021/12/04 05:27:58;;;;;;;3.62;2.67;;;3.90;99.90;;;;;;7381300;32;20197;-58
2021/12/04 05:32:00;;;;;;;5.95;2.50;;;4.00;99.90;;;;;;7383331;32;20095;-59
2021/12/04 05:36:02;;;;;;;3.37;2.60;;;4.00;99.90;;;;;;7383457;32;20466;-59
2021/12/04 05:40:06;;;;;;;4.20;2.12;;;4.00;99.90;;;;;;7381916;32;20103;-58
2021/12/04 05:44:10;;;;;;;3.45;2.47;;;4.10;99.90;;;;;;7381446;32;20218;-59
2021/12/04 05:48:25;;;;;;;3.30;2.40;;;4.10;99.90;;;;;;7379235;32;20131;-59
2021/12/04 05:52:38;;;;;;;4.55;2.28;;;4.10;99.90;;;;;;7382133;32;20186;-59
2021/12/04 05:56:40;;;;;;;4.60;2.12;;;4.10;99.90;;;;;;7381014;32;20215;-59
2021/12/04 06:00:42;;;;;;;3.85;2.37;;;4.00;99.90;;;;;;7380009;32;20220;-60
2021/12/04 06:04:43;;;;;;;3.62;2.10;;;4.10;99.90;;;;;;7375156;32;20133;-59
2021/12/04 06:08:45;;;;;;;3.10;2.00;;;4.00;99.90;;;;;;7380926;32;20393;-60
2021/12/04 06:12:47;;;;;;;2.92;2.30;;;4.10;99.90;;;;;;7380605;32;20562;-60
2021/12/04 06:16:49;;;;;;;3.12;2.03;;;4.10;99.90;;;;;;7380682;32;20334;-59
2021/12/04 06:25:20;;;;;;;2.58;1.92;;;4.20;99.90;;;;;;7355773;32;20728;-60
2021/12/04 06:29:23;;;;;;;2.95;2.15;;;4.20;99.90;;;;;;7370191;32;20099;-59
2021/12/04 06:33:26;;;;;;;2.75;2.08;;;4.20;99.90;;;;;;7371840;32;20210;-58
2021/12/04 06:37:28;;;;;;;2.80;1.90;;;4.20;99.90;;;;;;7371224;32;20897;-59
2021/12/04 06:41:29;;;;;;;3.12;2.00;;;4.20;99.90;;;;;;7374795;32;20129;-59
2021/12/04 06:45:34;;;;;;;3.42;2.12;;;4.20;99.90;;;;;;7380794;32;20447;-59
2021/12/04 06:49:40;;;;;;;2.80;2.08;;;4.10;99.90;;;;;;7369827;32;20107;-59
2021/12/04 06:53:48;;;;;;;3.95;2.00;;;4.20;99.90;;;;;;7369420;32;20482;-59
2021/12/04 06:57:49;;;;;;;3.30;1.92;;;4.20;99.90;;;;;;7373905;32;20145;-58
2021/12/04 07:01:51;;;;;;;3.03;2.22;;;4.20;99.90;;;;;;7368392;32;20099;-59
2021/12/04 07:05:53;;;;;;;2.90;2.42;;;4.20;99.90;;;;;;7370260;32;20549;-59
2021/12/04 07:09:55;;;;;;;4.45;2.10;;;4.20;99.90;;;;;;7367897;32;20107;-58
2021/12/04 07:13:56;;;;;;;5.50;2.15;;;4.20;99.90;;;;;;7373200;32;20161;-58
2021/12/04 07:18:00;;;;;;;2.70;1.95;;;4.20;99.90;;;;;;7372190;32;20432;-58
2021/12/04 07:22:03;;;;;;;3.95;2.22;;;4.20;99.90;;;;;;7377964;32;20130;-58
2021/12/04 07:26:06;;;;;;;7.07;2.65;;;4.20;99.90;;;;;;7375021;32;20103;-58
2021/12/04 07:30:09;;;;;;;5.97;2.72;;;4.20;99.90;;;;;;7374984;32;20238;-59
2021/12/04 07:34:11;;;;;;;2.97;2.20;;;4.20;99.90;;;;;;7370179;32;20126;-58
2021/12/04 07:38:14;;;;;;;3.17;2.55;;;4.20;99.90;;;;;;7374933;32;20103;-59
2021/12/04 07:42:15;;;;;;;5.55;2.67;;;4.20;99.90;;;;;;7373039;32;20102;-59
2021/12/04 07:46:17;;;;;;;5.28;2.75;;;4.20;99.90;;;;;;7365812;32;20121;-59
2021/12/04 07:50:19;;;;;;;3.08;2.30;;;4.20;99.90;;;;;;7380047;32;20107;-59
2021/12/04 07:54:21;;;;;;;4.85;2.60;;;4.20;99.90;;;;;;7373291;32;20123;-58
2021/12/04 07:58:23;;;;;;;3.90;3.00;;;4.20;99.90;;;;;;7379561;32;20110;-58
2021/12/04 08:02:25;;;;;;;4.37;3.17;;;4.20;99.90;;;;;;7371113;32;20137;-60
2021/12/04 08:06:27;;;;;;;4.68;2.80;;;4.30;99.90;;;;;;7377706;32;20683;-59
2021/12/04 08:10:29;;;;;;;6.72;4.22;;;4.30;99.90;;;;;;7368842;32;20194;-58
2021/12/04 08:14:31;;;;;;;4.70;3.58;;;4.20;99.90;;;;;;7370867;32;20122;-59
2021/12/04 08:18:32;;;;;;;6.62;3.95;;;4.30;99.90;;;;;;7366681;32;20127;-59
2021/12/04 08:22:34;;;;;;;7.25;4.32;;;4.40;99.90;;;;;;7372537;32;20503;-58
2021/12/04 08:26:38;;;;;;;7.07;4.07;;;4.20;99.90;;;;;;7380593;32;20107;-58
2021/12/04 08:30:40;;;;;;;6.55;4.03;;;4.20;99.90;;;;;;7384293;32;20102;-58
2021/12/04 08:34:42;;;;;;;5.22;4.12;;;4.10;99.90;;;;;;7380007;32;20111;-58
2021/12/04 08:38:47;;;;;;;6.20;4.53;;;4.20;99.90;;;;;;7383970;32;20133;-59
2021/12/04 08:42:49;;;;;;;6.22;4.47;;;4.30;99.90;;;;;;7379827;32;20705;-59
2021/12/04 08:46:51;;;;;;;6.15;4.55;;;4.30;99.90;;;;;;7381883;32;20245;-59
2021/12/04 08:50:53;;;;;;;6.25;4.68;;;4.40;99.90;;;;;;7383737;32;20106;-59
2021/12/04 08:54:55;;;;;;;7.65;4.65;;;4.30;99.90;;;;;;7367596;32;20111;-59
2021/12/04 08:58:56;;;;;;;5.05;3.90;;;4.40;99.90;;;;;;7380023;32;20099;-59
2021/12/04 09:02:58;;;;;;;6.62;4.55;;;4.50;99.90;;;;;;7374911;32;20106;-59
2021/12/04 09:07:01;;;;;;;4.68;3.87;;;4.60;99.90;;;;;;7374214;32;20745;-59
2021/12/04 09:11:09;;;;;;;6.15;4.28;;;4.70;99.90;;;;;;7381056;32;20134;-59
2021/12/04 09:15:16;;;;;;;5.15;3.87;;;4.60;99.90;;;;;;7370267;32;20123;-59
2021/12/04 09:19:19;;;;;;;6.50;4.53;;;4.70;99.90;;;;;;7373215;32;20228;-59
2021/12/04 09:23:22;;;;;;;7.03;3.90;;;4.70;99.90;;;;;;7377827;32;20130;-60
2021/12/04 10:35:21;;;;;;;3.28;2.67;;;5.30;99.90;;;;;;7375192;32;20190;-58
2021/12/04 10:39:24;;;;;;;2.95;2.65;;;5.30;99.90;;;;;;7364610;32;20515;-58
2021/12/04 10:43:28;;;;;;;3.67;3.17;;;5.20;99.90;;;;;;7374485;32;20103;-58
2021/12/04 10:47:29;;;;;;;3.05;2.55;;;5.20;99.90;;;;;;7370732;32;20194;-58
2021/12/04 10:51:50;;;;;;;3.28;2.70;;;5.20;99.90;;;;;;7379232;32;20110;-58
2021/12/04 11:00:32;;;;;;;3.90;2.67;;;5.30;99.90;;;;;;7369154;32;20237;-59
2021/12/04 11:04:49;;;;;;;4.03;2.85;;;5.40;99.90;;;;;;7365540;32;20133;-58
2021/12/04 11:22:28;;;;;;;4.32;2.37;;;5.50;99.90;;;;;;7364198;32;20535;-60
2021/12/04 11:36:06;;;;;;;2.47;1.83;;;5.70;99.90;;;;;;7365565;32;20118;-59
2021/12/04 11:40:05;;;;;;;3.08;2.25;;;5.70;99.90;;;;;;7367126;32;20115;-59
2021/12/04 11:44:12;;;;;;;1.92;1.62;;;5.80;99.90;;;;;;7367847;32;20110;-59
2021/12/04 11:48:13;;;;;;;2.63;2.10;;;5.70;99.90;;;;;;7380776;32;20125;-59
2021/12/04 11:52:20;;;;;;;2.45;2.03;;;5.60;99.90;;;;;;7375630;32;20221;-59
2021/12/04 11:56:28;;;;;;;1.83;1.52;;;5.50;99.90;;;;;;7377828;32;20525;-58
2021/12/04 12:00:33;;;;;;;2.60;2.08;;;5.70;99.90;;;;;;7378832;32;20181;-59
2021/12/04 12:04:48;;;;;;;3.10;2.33;;;5.70;99.90;;;;;;7388843;32;20129;-59
2021/12/04 12:09:00;;;;;;;4.68;2.10;;;5.80;99.90;;;;;;7388971;32;20141;-59
2021/12/04 12:13:06;;;;;;;3.00;1.80;;;5.80;99.90;;;;;;7388302;32;20103;-59
2021/12/04 12:17:09;;;;;;;3.22;2.28;;;5.60;99.90;;;;;;7380172;32;20103;-60
2021/12/04 12:21:14;;;;;;;2.67;1.87;;;5.70;99.90;;;;;;7386940;32;20421;-60
2021/12/04 12:38:46;;;;;;;2.33;1.45;;;6.10;99.90;;;;;;7383554;32;20287;-59
2021/12/04 12:42:48;;;;;;;3.12;1.65;;;6.10;99.90;;;;;;7384601;32;20488;-60
2021/12/04 12:46:59;;;;;;;2.83;1.92;;;6.00;99.90;;;;;;7383416;32;20139;-59
2021/12/04 12:51:07;;;;;;;1.80;1.58;;;5.90;99.90;;;;;;7383840;32;20613;-59
2021/12/04 12:55:10;;;;;;;2.62;2.00;;;6.00;99.90;;;;;;7380693;32;20155;-60
2021/12/04 12:59:36;;;;;;;2.33;1.67;;;6.10;99.90;;;;;;7384747;32;20133;-59
2021/12/04 13:12:21;;;;;;;2.35;1.65;;;5.90;99.90;;;;;;7376820;32;20885;-59
2021/12/04 13:16:30;;;;;;;5.95;2.35;;;5.90;99.90;;;;;;7385078;32;20153;-60
2021/12/04 13:20:32;;;;;;;2.87;1.85;;;5.90;99.90;;;;;;7372067;32;20141;-59
2021/12/04 13:24:38;;;;;;;3.00;1.80;;;5.80;99.90;;;;;;7384681;32;20686;-60
2021/12/04 13:28:43;;;;;;;3.00;2.30;;;5.70;99.90;;;;;;7380203;32;20212;-59
2021/12/04 13:32:49;;;;;;;5.15;2.08;;;5.60;99.90;;;;;;7375865;32;20702;-59
2021/12/04 13:36:53;;;;;;;2.42;1.90;;;5.60;99.90;;;;;;7379194;32;20103;-58
2021/12/04 13:40:56;;;;;;;2.83;2.20;;;5.50;99.90;;;;;;7375287;32;20111;-59
2021/12/04 13:45:02;;;;;;;3.70;2.60;;;5.50;99.90;;;;;;7383766;32;20205;-59
2021/12/04 13:49:04;;;;;;;3.90;2.57;;;5.50;99.90;;;;;;7379863;32;20601;-59
2021/12/04 13:53:07;;;;;;;3.37;2.67;;;5.50;99.90;;;;;;7378124;32;20133;-58
2021/12/04 13:57:11;;;;;;;3.15;2.50;;;5.40;99.90;;;;;;7377791;32;20197;-59
2021/12/04 14:01:13;;;;;;;3.62;2.67;;;5.40;99.90;;;;;;7364958;32;20118;-58
2021/12/04 14:05:21;;;;;;;5.43;2.70;;;5.30;99.90;;;;;;7367618;32;20793;-59
2021/12/04 14:09:30;;;;;;;3.95;2.80;;;5.30;99.90;;;;;;7383198;32;20584;-60
2021/12/04 14:13:32;;;;;;;3.25;2.80;;;5.30;99.90;;;;;;7376365;32;20525;-59
2021/12/04 14:17:33;;;;;;;4.85;3.08;;;5.30;99.90;;;;;;7385030;32;20126;-59
2021/12/04 14:21:35;;;;;;;3.42;2.75;;;5.40;99.90;;;;;;7380000;32;20126;-60
2021/12/04 14:25:43;;;;;;;5.72;3.33;;;5.20;99.90;;;;;;7381788;32;20129;-59
2021/12/04 14:29:48;;;;;;;6.82;3.70;;;5.30;99.90;;;;;;7382344;32;20786;-58
2021/12/04 14:33:49;;;;;;;5.12;3.80;;;5.20;99.90;;;;;;7377983;32;20221;-59
2021/12/04 14:37:54;;;;;;;7.22;5.43;;;5.30;99.90;;;;;;7382994;32;20107;-59
2021/12/04 14:41:56;;;;;;;5.55;4.15;;;5.20;99.90;;;;;;7381724;32;20102;-59
2021/12/04 14:46:00;;;;;;;7.03;4.32;;;5.30;99.90;;;;;;7376691;32;20115;-59
2021/12/04 14:50:07;;;;;;;7.03;4.78;;;5.20;99.90;;;;;;7382350;32;20103;-59
2021/12/04 14:54:09;;;;;;;8.23;5.12;;;5.20;99.90;;;;;;7376434;32;20238;-59
2021/12/04 14:58:13;;;;;;;9.65;6.28;;;5.20;99.90;;;;;;7382594;32;20171;-60
2021/12/04 15:02:19;;;;;;;11.20;6.32;;;5.20;99.90;;;;;;7382020;32;20103;-59
2021/12/04 15:06:24;;;;;;;12.02;6.32;;;5.10;99.90;;;;;;7373930;32;20560;-60
2021/12/04 15:10:26;;;;;;;8.88;5.60;;;5.20;99.90;;;;;;7377935;32;20106;-60
2021/12/04 15:14:32;;;;;;;9.90;6.78;;;5.20;99.90;;;;;;7381284;32;20515;-60
2021/12/04 15:18:37;;;;;;;11.70;7.30;;;5.20;99.90;;;;;;7381808;32;20131;-59
2021/12/04 15:23:04;;;;;;;12.27;8.40;;;5.10;99.90;;;;;;7374032;32;20553;-60
2021/12/04 15:27:10;;;;;;;;;;;5.10;99.90;;;;;;7382210;32;20133;-60
2021/12/04 15:31:12;;;;;;;8.70;6.68;;;5.00;99.90;;;;;;7371416;32;20014;-60
2021/12/04 15:35:32;;;;;;;9.23;6.00;;;4.90;99.90;;;;;;7380868;32;20213;-60
2021/12/04 15:39:43;;;;;;;9.63;4.90;;;4.90;99.90;;;;;;7377944;32;20103;-60
2021/12/04 15:43:57;;;;;;;6.05;4.22;;;4.90;99.90;;;;;;7382170;32;20133;-60
2021/12/04 15:52:49;;;;;;;6.47;4.47;;;4.90;99.90;;;;;;7380453;32;20131;-60
2021/12/04 15:56:55;;;;;;;8.02;5.35;;;4.90;99.90;;;;;;7381060;32;20416;-59
2021/12/04 16:01:06;;;;;;;10.70;6.40;;;4.80;99.90;;;;;;7371377;32;20106;-59
2021/12/04 16:05:13;;;;;;;13.30;6.97;;;4.90;99.90;;;;;;7379022;32;20103;-60
2021/12/04 16:09:24;;;;;;;10.23;6.78;;;4.90;99.90;;;;;;7378259;32;20107;-60
2021/12/04 16:13:31;;;;;;;12.73;6.47;;;5.00;99.90;;;;;;7377403;32;20146;-59
2021/12/04 16:17:33;;;;;;;7.25;5.43;;;5.00;99.90;;;;;;7372830;32;20137;-60
2021/12/04 16:21:35;;;;;;;9.07;5.87;;;5.00;99.90;;;;;;7381337;32;20110;-60
2021/12/04 16:25:38;;;;;;;7.62;5.18;;;4.90;99.90;;;;;;7378484;32;20127;-60
2021/12/04 16:29:49;;;;;;;10.27;5.37;;;4.90;99.90;;;;;;7378459;32;20475;-60
2021/12/04 16:34:05;;;;;;;7.57;5.28;;;5.00;99.90;;;;;;7373228;32;20138;-60
2021/12/04 16:38:11;;;;;;;9.48;6.40;;;5.00;99.90;;;;;;7378377;32;20099;-57
2021/12/04 16:42:13;;;;;;;7.60;5.25;;;5.00;99.90;;;;;;7380800;32;20115;-58
2021/12/04 16:46:19;;;;;;;8.48;5.30;;;5.00;99.90;;;;;;7380862;32;20405;-58
2021/12/04 16:50:24;;;;;;;8.35;5.82;;;5.10;99.90;;;;;;7385570;32;20273;-58
2021/12/04 16:58:47;;;;;;;9.38;6.70;;;5.10;99.90;;;;;;7386624;32;20091;-59
2021/12/04 17:02:49;;;;;;;10.13;7.50;;;5.20;99.90;;;;;;7377323;32;20129;-60
2021/12/04 17:06:53;;;;;;;13.52;8.15;;;5.10;99.90;;;;;;7384332;32;20185;-60
2021/12/04 17:10:55;;;;;;;11.95;7.95;;;5.20;99.90;;;;;;7385814;32;20103;-59
2021/12/04 17:14:57;;;;;;;11.52;8.32;;;5.20;99.90;;;;;;7385243;32;20823;-60
2021/12/04 17:19:10;;;;;;;15.98;9.50;;;5.20;99.90;;;;;;7383938;32;20565;-60
2021/12/04 17:23:13;;;;;;;11.45;8.98;;;5.20;99.90;;;;;;7377437;32;20106;-60
2021/12/04 17:27:15;;;;;;;13.73;9.55;;;5.30;99.90;;;;;;7382897;32;20125;-59
2021/12/04 17:31:17;;;;;;;13.25;10.43;;;5.30;99.90;;;;;;7383056;32;20515;-60
2021/12/04 17:35:19;;;;;;;14.38;10.25;;;5.30;99.90;;;;;;7380204;32;20537;-60
2021/12/04 17:39:21;;;;;;;16.80;10.80;;;5.30;99.90;;;;;;7377300;32;20103;-60
2021/12/04 17:43:23;;;;;;;15.65;10.18;;;5.30;99.90;;;;;;7373777;32;20127;-60
2021/12/04 17:47:27;;;;;;;14.98;10.20;;;5.30;99.90;;;;;;7383535;32;20121;-60
2021/12/04 17:51:29;;;;;;;12.25;8.77;;;5.30;99.90;;;;;;7379245;32;20110;-59
2021/12/04 17:55:31;;;;;;;12.23;9.32;;;5.30;99.90;;;;;;7380891;32;20197;-59
2021/12/04 17:59:33;;;;;;;13.27;8.18;;;5.30;99.90;;;;;;7384219;32;20125;-60
2021/12/04 18:03:37;;;;;;;13.88;8.40;;;5.30;99.90;;;;;;7368957;32;20111;-60
2021/12/04 18:07:40;;;;;;;12.15;8.45;;;5.30;99.90;;;;;;7383465;32;20118;-59
2021/12/04 18:11:48;;;;;;;11.18;7.82;;;5.40;99.90;;;;;;7383547;32;20193;-60
2021/12/04 18:16:00;;;;;;;11.90;8.43;;;5.30;99.90;;;;;;7380133;32;20205;-60
2021/12/04 18:20:02;;;;;;;10.63;7.28;;;5.40;99.90;;;;;;7379784;32;20539;-60
2021/12/04 18:24:05;;;;;;;11.90;7.25;;;5.30;99.90;;;;;;7381840;32;20212;-59
2021/12/04 18:28:07;;;;;;;10.07;5.25;;;5.40;99.90;;;;;;7380563;32;20499;-60
2021/12/04 18:32:09;;;;;;;8.82;4.80;;;5.30;99.90;;;;;;7382573;32;20230;-60
2021/12/04 18:36:11;;;;;;;12.95;5.25;;;5.30;99.90;;;;;;7377296;32;20170;-57
2021/12/04 18:40:15;;;;;;;15.77;5.03;;;5.30;99.90;;;;;;7372163;32;20497;-59
2021/12/04 18:44:17;;;;;;;14.27;4.90;;;5.20;99.90;;;;;;7378110;32;20106;-59
2021/12/04 18:48:22;;;;;;;8.95;4.43;;;5.00;99.90;;;;;;7381755;32;20117;-59
2021/12/04 18:52:25;;;;;;;11.12;4.43;;;4.90;99.90;;;;;;7379162;32;20436;-57
2021/12/04 18:56:27;;;;;;;14.60;5.10;;;4.90;99.90;;;;;;7379938;32;20248;-58
2021/12/04 19:00:30;;;;;;;14.77;5.20;;;4.80;99.90;;;;;;7378978;32;20129;-58
2021/12/04 19:04:32;;;;;;;11.25;5.20;;;4.80;99.90;;;;;;7377310;32;20836;-58
2021/12/04 19:08:36;;;;;;;15.95;6.53;;;4.70;99.90;;;;;;7380467;32;20107;-59
2021/12/04 19:12:41;;;;;;;15.20;6.78;;;4.70;99.90;;;;;;7377696;32;20212;-58
2021/12/04 19:16:43;;;;;;;18.40;6.43;;;4.70;99.90;;;;;;7379145;32;20248;-59
2021/12/04 19:20:48;;;;;;;20.23;7.57;;;4.70;99.90;;;;;;7372468;32;20133;-58
2021/12/04 19:24:50;;;;;;;17.75;7.78;;;4.80;99.90;;;;;;7376374;32;20102;-59
2021/12/04 19:28:51;;;;;;;14.93;6.95;;;4.80;99.90;;;;;;7376191;32;20111;-59
2021/12/04 19:33:01;;;;;;;15.52;6.87;;;4.80;99.90;;;;;;7380497;32;20107;-60
2021/12/04 19:50:34;;;;;;;20.48;8.32;;;4.90;99.90;;;;;;7368259;32;20213;-59
2021/12/04 19:58:45;;;;;;;17.98;6.75;;;4.90;99.90;;;;;;7379706;32;20107;-59
2021/12/04 20:07:08;;;;;;;14.05;5.87;;;4.80;99.90;;;;;;7377708;32;20258;-60
2021/12/04 20:13:15;;;;;;;16.52;5.03;;;4.80;99.90;;;;;;7371399;32;20111;-59
2021/12/04 20:15:35;;;;;;;17.67;5.00;;;4.70;99.90;;;;;;7374703;32;20896;-60
2021/12/04 20:19:37;;;;;;;19.60;5.37;;;4.60;99.90;;;;;;7379337;32;20110;-59
2021/12/04 20:23:41;;;;;;;13.60;4.70;;;4.50;99.90;;;;;;7381783;32;20194;-59
2021/12/04 20:27:47;;;;;;;11.43;4.72;;;4.40;99.90;;;;;;7381084;32;20448;-60
2021/12/04 21:53:32;;;;;;;19.95;4.62;;;4.60;99.90;;;;;;7377157;32;20194;-59
2021/12/04 22:10:28;;;;;;;10.77;2.97;;;4.60;99.90;;;;;;7380907;32;20111;-60
2021/12/04 22:58:14;;;;;;;12.40;2.45;;;4.50;99.90;;;;;;7375715;32;20107;-59
2021/12/04 23:02:19;;;;;;;14.38;2.75;;;4.50;99.90;;;;;;7381074;32;20134;-59
2021/12/04 23:11:12;;;;;;;14.93;2.37;;;4.50;99.90;;;;;;7375981;32;20556;-59
2021/12/04 23:15:22;;;;;;;11.68;2.10;;;4.50;99.90;;;;;;7379025;32;20107;-59
2021/12/04 23:32:11;;;;;;;16.80;2.25;;;4.40;99.90;;;;;;7377089;32;20161;-59
2021/12/04 23:36:58;;;;;;;10.98;2.17;;;4.40;99.90;;;;;;7379434;32;20480;-59
2021/12/04 23:41:39;;;;;;;11.70;2.35;;;4.30;99.90;;;;;;7376623;32;20198;-59
